Time;durP1;ratioP1;P1;durP2;ratioP2;P2;SDS_P1;SDS_P2;PMS_P1;PMS_P2;Temp;Humidity;BMP_temperature;BMP_pressure;BME280_temperature;BME280_humidity;BME280_pressure;Samples;Min_cycle;Max_cycle;Signal;HPM_P1;HPM_P2
2021/06/09 05:34:11;;;;;;;2.75;2.08;;;16.90;99.90;;;;;;4371817;26;20072;-74
2021/06/09 05:36:38;;;;;;;2.75;1.80;;;16.90;99.90;;;;;;5066831;28;20068;-73
2021/06/09 05:39:10;;;;;;;4.78;2.70;;;16.90;99.90;;;;;;5066287;28;20036;-74
2021/06/09 05:41:35;;;;;;;6.82;2.40;;;16.90;99.90;;;;;;5066639;28;20017;-73
2021/06/09 05:44:01;;;;;;;5.70;2.55;;;17.00;99.90;;;;;;5059764;28;20062;-73
2021/06/09 05:46:28;;;;;;;8.68;2.65;;;17.10;99.90;;;;;;5060744;28;20108;-75
2021/06/09 05:48:54;;;;;;;6.03;3.05;;;17.10;99.90;;;;;;5061142;28;20357;-74
2021/06/09 05:51:22;;;;;;;4.75;2.63;;;17.20;99.90;;;;;;5046167;28;20022;-74
2021/06/09 05:53:53;;;;;;;4.28;2.40;;;17.20;99.90;;;;;;5047174;28;20034;-73
2021/06/09 05:56:19;;;;;;;5.53;2.55;;;17.30;99.90;;;;;;5046744;28;20112;-74
2021/06/09 05:58:45;;;;;;;4.53;2.38;;;17.30;99.90;;;;;;5046356;28;20131;-73
2021/06/09 06:01:11;;;;;;;6.50;3.60;;;17.50;99.90;;;;;;5028594;28;20116;-73
2021/06/09 06:03:39;;;;;;;2.92;2.22;;;17.60;99.90;;;;;;5046081;28;20030;-73
2021/06/09 06:06:10;;;;;;;4.43;2.25;;;17.70;99.90;;;;;;5045971;28;20021;-74
2021/06/09 06:08:39;;;;;;;3.60;2.05;;;17.90;99.90;;;;;;5046391;28;20048;-74
2021/06/09 06:11:14;;;;;;;3.53;2.20;;;18.00;99.90;;;;;;5046185;28;20079;-73
2021/06/09 06:13:42;;;;;;;2.97;2.10;;;18.20;99.90;;;;;;5045947;28;20056;-72
2021/06/09 06:16:08;;;;;;;4.85;2.50;;;18.20;99.90;;;;;;5046217;28;20029;-73
2021/06/09 06:18:39;;;;;;;5.05;2.92;;;18.30;99.90;;;;;;5027905;28;20029;-74
2021/06/09 06:21:06;;;;;;;6.93;3.20;;;18.30;99.90;;;;;;5045825;28;20029;-73
2021/06/09 06:23:34;;;;;;;4.97;2.58;;;18.30;99.90;;;;;;5046065;28;20083;-74
2021/06/09 06:26:00;;;;;;;4.10;2.10;;;18.40;99.90;;;;;;5046075;28;20017;-73
2021/06/09 06:28:26;;;;;;;10.23;2.67;;;18.40;99.90;;;;;;5045791;28;20017;-74
2021/06/09 06:30:53;;;;;;;3.40;1.85;;;18.40;99.90;;;;;;5044361;28;20381;-74
2021/06/09 06:33:22;;;;;;;3.67;2.05;;;18.40;99.90;;;;;;5025369;28;20080;-73
2021/06/09 06:35:49;;;;;;;8.27;1.98;;;18.40;99.90;;;;;;5026230;28;20052;-73
2021/06/09 06:38:15;;;;;;;5.30;2.75;;;18.40;99.90;;;;;;5029771;28;20025;-73
2021/06/09 06:40:42;;;;;;;4.55;2.58;;;18.40;99.90;;;;;;5045402;28;20030;-73
2021/06/09 06:43:08;;;;;;;6.55;2.72;;;18.40;99.90;;;;;;5045404;28;20071;-73
2021/06/09 06:45:34;;;;;;;6.80;2.58;;;18.40;99.90;;;;;;5027988;28;20045;-73
2021/06/09 06:48:01;;;;;;;5.38;2.47;;;18.40;99.90;;;;;;5045236;28;20025;-73
2021/06/09 06:50:27;;;;;;;2.60;1.67;;;18.40;99.90;;;;;;5045427;28;20028;-73
2021/06/09 06:52:52;;;;;;;3.33;1.85;;;18.40;99.90;;;;;;5045243;28;20029;-72
2021/06/09 06:55:20;;;;;;;3.63;2.00;;;18.50;99.90;;;;;;5024118;28;20026;-74
2021/06/09 06:57:47;;;;;;;2.75;1.83;;;18.50;99.90;;;;;;5025342;28;20022;-73
2021/06/09 07:00:19;;;;;;;3.17;1.60;;;18.50;99.90;;;;;;5025528;28;20057;-73
2021/06/09 07:02:53;;;;;;;7.75;2.80;;;18.60;99.90;;;;;;5025394;28;20094;-73
2021/06/09 07:05:20;;;;;;;2.50;1.63;;;18.60;99.90;;;;;;5025654;28;20030;-74
2021/06/09 07:07:47;;;;;;;4.10;2.10;;;18.50;99.90;;;;;;5027933;28;20033;-73
2021/06/09 07:10:15;;;;;;;2.85;1.85;;;18.70;99.90;;;;;;5029551;28;20029;-74
2021/06/09 07:12:42;;;;;;;4.05;2.00;;;18.60;99.90;;;;;;5042771;28;20067;-73
2021/06/09 07:15:11;;;;;;;8.32;2.88;;;18.80;99.90;;;;;;5034550;28;20037;-74
2021/06/09 07:17:42;;;;;;;2.72;1.52;;;18.90;99.90;;;;;;5024818;28;20022;-71
2021/06/09 07:20:10;;;;;;;5.57;2.53;;;19.00;99.90;;;;;;5038300;28;20035;-72
2021/06/09 07:22:37;;;;;;;4.35;2.25;;;19.00;99.90;;;;;;5031830;28;20029;-73
2021/06/09 07:25:04;;;;;;;7.78;1.70;;;19.10;99.90;;;;;;5026395;28;20030;-73
2021/06/09 07:27:34;;;;;;;4.43;1.90;;;19.20;99.90;;;;;;5024628;28;20025;-72
2021/06/09 07:30:01;;;;;;;2.38;1.50;;;19.30;99.90;;;;;;5026956;28;20026;-73
2021/06/09 07:32:27;;;;;;;2.58;1.95;;;19.40;99.90;;;;;;5043413;28;20034;-76
2021/06/09 07:34:53;;;;;;;2.58;1.65;;;19.40;99.90;;;;;;5043538;28;20018;-73
2021/06/09 07:37:21;;;;;;;3.05;1.50;;;19.50;99.90;;;;;;5044576;28;20037;-75
2021/06/09 07:39:52;;;;;;;5.30;1.70;;;19.50;99.90;;;;;;5044317;28;20528;-72
2021/06/09 07:42:22;;;;;;;5.40;2.00;;;19.70;99.90;;;;;;5027126;28;20033;-74
2021/06/09 07:45:09;;;;;;;4.55;2.58;;;19.70;99.90;;;;;;5044395;28;20018;-74
2021/06/09 07:47:35;;;;;;;2.50;1.67;;;19.80;99.90;;;;;;5044374;28;20087;-73
2021/06/09 07:50:05;;;;;;;4.35;1.88;;;19.90;99.90;;;;;;5035871;28;20086;-73
2021/06/09 07:52:35;;;;;;;4.03;2.08;;;20.00;99.90;;;;;;5035810;28;20120;-74
2021/06/09 07:55:01;;;;;;;2.17;1.48;;;20.10;99.90;;;;;;5042987;28;20469;-73
2021/06/09 07:57:33;;;;;;;3.28;2.38;;;20.20;99.90;;;;;;5044196;28;20025;-71
2021/06/09 08:00:01;;;;;;;3.35;2.15;;;20.30;99.90;;;;;;5044205;28;20034;-74
2021/06/09 08:02:28;;;;;;;4.13;1.80;;;20.30;99.90;;;;;;5044133;28;20030;-73
2021/06/09 08:04:58;;;;;;;3.28;1.80;;;20.40;99.90;;;;;;5043704;28;20025;-74
2021/06/09 08:07:23;;;;;;;5.07;2.50;;;20.50;99.90;;;;;;5034085;28;20029;-73
2021/06/09 08:09:49;;;;;;;4.32;2.90;;;20.60;99.90;;;;;;5027563;28;20123;-73
2021/06/09 08:12:17;;;;;;;3.22;2.03;;;20.70;99.90;;;;;;5033704;28;20033;-72
2021/06/09 08:14:43;;;;;;;3.85;2.28;;;20.80;99.90;;;;;;5043665;28;20022;-72
2021/06/09 08:17:09;;;;;;;3.83;2.00;;;20.90;99.90;;;;;;5043707;28;20040;-73
2021/06/09 08:19:34;;;;;;;1.98;1.42;;;21.00;99.90;;;;;;5034261;28;20112;-73
2021/06/09 08:22:00;;;;;;;4.03;1.65;;;21.10;99.90;;;;;;5035113;28;20030;-73
2021/06/09 08:24:26;;;;;;;3.15;1.77;;;21.20;99.90;;;;;;5025180;28;20378;-75
2021/06/09 08:26:54;;;;;;;19.38;2.13;;;21.20;99.90;;;;;;5020238;28;20037;-73
2021/06/09 08:29:20;;;;;;;7.10;3.10;;;21.30;99.90;;;;;;5032800;28;20424;-76
2021/06/09 08:31:46;;;;;;;9.18;2.38;;;21.30;99.90;;;;;;5028996;28;20026;-72
2021/06/09 08:34:11;;;;;;;3.83;2.47;;;21.30;99.90;;;;;;5042810;28;20072;-72
2021/06/09 08:36:39;;;;;;;2.42;1.80;;;21.40;99.90;;;;;;5046811;28;20029;-73
2021/06/09 08:39:05;;;;;;;3.53;2.17;;;21.50;99.90;;;;;;5043305;28;20547;-71
2021/06/09 08:41:34;;;;;;;10.23;2.63;;;21.60;99.90;;;;;;5044259;28;20026;-74
2021/06/09 08:44:01;;;;;;;6.28;2.08;;;21.70;99.90;;;;;;5040590;28;20389;-73
2021/06/09 08:46:29;;;;;;;3.63;1.80;;;21.80;99.90;;;;;;5027118;28;20022;-70
2021/06/09 08:48:56;;;;;;;5.82;1.85;;;21.90;99.90;;;;;;5027799;28;20030;-72
2021/06/09 08:51:23;;;;;;;2.47;1.70;;;21.90;99.90;;;;;;5034195;28;20030;-76
2021/06/09 08:53:51;;;;;;;2.67;1.30;;;22.00;99.90;;;;;;5029449;28;20032;-72
2021/06/09 08:56:19;;;;;;;3.95;2.03;;;22.10;99.90;;;;;;5029506;28;20033;-73
2021/06/09 08:58:45;;;;;;;6.55;2.15;;;22.10;99.90;;;;;;5026810;28;20022;-75
2021/06/09 09:01:12;;;;;;;4.28;2.65;;;22.10;99.90;;;;;;5027015;28;20358;-73
2021/06/09 09:03:42;;;;;;;3.90;1.85;;;22.20;99.90;;;;;;5045742;28;20037;-72
2021/06/09 09:06:08;;;;;;;4.65;1.48;;;22.30;99.90;;;;;;5036905;28;20087;-72
2021/06/09 09:08:35;;;;;;;2.20;1.25;;;22.40;99.90;;;;;;5037174;28;20762;-73
2021/06/09 09:11:02;;;;;;;4.25;1.45;;;22.50;99.90;;;;;;5028269;28;20040;-73
2021/06/09 09:13:27;;;;;;;2.72;1.55;;;22.70;99.90;;;;;;5036109;28;20029;-75
2021/06/09 09:15:55;;;;;;;3.83;2.15;;;22.80;99.90;;;;;;5027205;28;20114;-74
2021/06/09 09:18:45;;;;;;;8.20;1.70;;;22.90;99.90;;;;;;5027025;28;20022;-75
2021/06/09 09:21:13;;;;;;;3.25;1.70;;;23.00;99.90;;;;;;5026990;28;20089;-73
2021/06/09 09:23:50;;;;;;;5.30;1.98;;;23.20;99.90;;;;;;5025765;28;20584;-73
2021/06/09 09:26:29;;;;;;;2.80;1.65;;;23.20;99.90;;;;;;5031110;28;20025;-73
2021/06/09 09:29:17;;;;;;;3.33;1.60;;;23.40;99.90;;;;;;5045708;28;20025;-74
2021/06/09 09:32:09;;;;;;;1.42;1.08;;;23.50;99.90;;;;;;5034168;28;20045;-74
2021/06/09 09:34:39;;;;;;;1.88;1.15;;;23.60;99.90;;;;;;5021698;28;20433;-75
2021/06/09 09:37:21;;;;;;;2.50;1.27;;;23.60;99.90;;;;;;5045877;28;20029;-74
2021/06/09 09:40:05;;;;;;;2.45;1.38;;;23.70;99.90;;;;;;5046553;28;20361;-76
2021/06/09 09:42:35;;;;;;;1.65;1.05;;;23.80;99.90;;;;;;5045903;28;20038;-74
2021/06/09 09:45:15;;;;;;;2.47;1.35;;;23.90;99.90;;;;;;5046152;28;20025;-73
2021/06/09 09:47:41;;;;;;;1.45;1.02;;;24.00;99.90;;;;;;5045718;28;20457;-74
2021/06/09 09:50:07;;;;;;;1.50;1.10;;;24.10;99.90;;;;;;5045780;28;20068;-73
2021/06/09 09:52:49;;;;;;;1.95;1.05;;;24.30;99.90;;;;;;5045625;28;20075;-75
2021/06/09 09:55:15;;;;;;;1.35;0.90;;;24.40;99.90;;;;;;5044686;28;20373;-73
2021/06/09 09:57:40;;;;;;;4.15;1.15;;;24.50;99.90;;;;;;5039347;28;20032;-74
2021/06/09 10:00:08;;;;;;;1.98;1.05;;;24.60;99.90;;;;;;5025905;28;20069;-75
2021/06/09 10:02:34;;;;;;;1.98;1.30;;;24.70;99.90;;;;;;5034790;28;20042;-73
2021/06/09 10:05:13;;;;;;;1.52;1.08;;;24.70;99.90;;;;;;5025025;28;20048;-75
2021/06/09 10:07:59;;;;;;;1.42;1.00;;;24.80;99.90;;;;;;5024403;28;20073;-73
2021/06/09 10:10:26;;;;;;;2.50;1.02;;;24.90;99.90;;;;;;5025246;28;20112;-73
2021/06/09 10:13:15;;;;;;;2.53;1.40;;;25.00;99.90;;;;;;5027789;28;20473;-72
2021/06/09 10:15:49;;;;;;;1.85;0.90;;;25.10;99.90;;;;;;5044406;28;20096;-71
2021/06/09 10:18:24;;;;;;;2.65;1.20;;;25.10;99.90;;;;;;5045127;28;20033;-72
2021/06/09 10:20:52;;;;;;;1.63;1.10;;;25.20;99.90;;;;;;5045715;28;20033;-74
2021/06/09 10:23:38;;;;;;;2.42;1.20;;;25.20;99.90;;;;;;5045474;28;20146;-74
2021/06/09 10:26:09;;;;;;;1.67;1.15;;;25.30;99.90;;;;;;5045056;28;20025;-73
2021/06/09 10:29:02;;;;;;;1.25;0.85;;;25.30;99.90;;;;;;5033167;28;20022;-74
2021/06/09 10:31:37;;;;;;;1.67;1.05;;;25.40;99.90;;;;;;5024534;28;20033;-73
2021/06/09 11:54:02;;;;;;;3.20;2.10;;;28.80;99.90;;;;;;5057457;28;20052;-75
2021/06/09 11:56:32;;;;;;;4.63;2.42;;;28.40;99.90;;;;;;5062338;28;20025;-74
2021/06/09 11:59:10;;;;;;;2.40;1.63;;;28.20;99.90;;;;;;5062931;28;20328;-74
2021/06/09 12:01:43;;;;;;;2.88;1.88;;;28.00;99.90;;;;;;5059781;28;20029;-72
2021/06/09 12:04:25;;;;;;;2.70;1.45;;;27.90;99.90;;;;;;5066321;28;20464;-73
2021/06/09 12:07:09;;;;;;;2.50;1.80;;;27.90;99.90;;;;;;5083908;28;20048;-75
2021/06/09 12:09:40;;;;;;;2.58;1.85;;;28.20;99.90;;;;;;5065535;28;20033;-74
2021/06/09 12:12:25;;;;;;;2.40;2.03;;;28.60;99.90;;;;;;5046653;28;20037;-73
2021/06/09 12:14:53;;;;;;;9.82;2.55;;;28.70;99.90;;;;;;5047902;28;20033;-73
2021/06/09 12:17:27;;;;;;;4.10;2.25;;;28.40;99.90;;;;;;5052370;28;20027;-71
2021/06/09 12:20:00;;;;;;;3.83;2.17;;;28.10;99.90;;;;;;5068287;28;20037;-74
2021/06/09 12:22:29;;;;;;;6.10;2.67;;;28.00;99.90;;;;;;5065898;28;20029;-75
2021/06/09 12:25:05;;;;;;;5.88;2.55;;;27.90;99.90;;;;;;5070427;28;20024;-75
2021/06/09 12:27:40;;;;;;;3.67;2.10;;;27.80;99.90;;;;;;5087202;28;20040;-72
2021/06/09 12:30:18;;;;;;;2.35;1.52;;;27.60;99.90;;;;;;5086579;28;20029;-74
2021/06/09 12:32:50;;;;;;;10.93;2.47;;;27.50;99.90;;;;;;5071071;28;20048;-72
2021/06/09 12:35:17;;;;;;;4.32;2.13;;;27.60;99.90;;;;;;5067539;28;20033;-71
2021/06/09 12:37:55;;;;;;;4.38;2.22;;;27.80;99.90;;;;;;5065766;28;20025;-74
2021/06/09 12:40:36;;;;;;;4.53;2.60;;;28.10;99.90;;;;;;5067837;28;20052;-74
2021/06/09 12:43:08;;;;;;;7.07;2.28;;;28.40;99.90;;;;;;5067102;28;20472;-73
2021/06/09 12:45:41;;;;;;;6.43;2.00;;;28.40;99.90;;;;;;5067054;28;20021;-73
2021/06/09 12:48:09;;;;;;;3.03;2.13;;;28.40;99.90;;;;;;5067564;28;20021;-72
2021/06/09 12:50:40;;;;;;;3.83;1.98;;;28.50;99.90;;;;;;5048124;28;20033;-72
2021/06/09 12:53:16;;;;;;;3.15;2.05;;;28.70;99.90;;;;;;5046468;28;20049;-72
2021/06/09 12:55:46;;;;;;;7.93;2.25;;;28.80;99.90;;;;;;5046826;28;20049;-73
2021/06/09 12:58:15;;;;;;;6.70;2.58;;;29.00;99.90;;;;;;5027007;28;20034;-73
2021/06/09 13:00:40;;;;;;;4.03;2.30;;;29.40;99.90;;;;;;5025884;28;20026;-72
2021/06/09 13:03:14;;;;;;;3.17;1.90;;;29.60;99.90;;;;;;5024967;28;20045;-74
2021/06/09 13:05:50;;;;;;;3.05;2.00;;;29.50;99.90;;;;;;5025230;28;20026;-72
2021/06/09 13:08:18;;;;;;;4.68;2.15;;;29.40;99.90;;;;;;5026706;28;20038;-74
2021/06/09 13:10:45;;;;;;;3.95;1.85;;;29.60;99.90;;;;;;5026870;28;20098;-73
2021/06/09 13:13:22;;;;;;;4.30;2.00;;;29.80;99.90;;;;;;5026146;28;20030;-75
2021/06/09 13:15:55;;;;;;;3.35;2.00;;;29.90;99.90;;;;;;5027245;28;20030;-74
2021/06/09 13:18:48;;;;;;;3.00;2.00;;;30.00;99.90;;;;;;5027018;28;20527;-75
2021/06/09 13:21:26;;;;;;;4.97;2.50;;;30.10;99.90;;;;;;5025507;28;20040;-73
2021/06/09 13:24:01;;;;;;;7.70;2.35;;;30.20;99.90;;;;;;5025018;28;20034;-75
2021/06/09 13:26:31;;;;;;;9.40;2.50;;;30.20;99.90;;;;;;5024560;28;20066;-75
2021/06/09 13:28:57;;;;;;;4.30;2.17;;;30.30;99.90;;;;;;5026746;28;20049;-75
2021/06/09 13:31:32;;;;;;;4.00;2.10;;;30.50;99.90;;;;;;5025486;28;20026;-74
2021/06/09 13:34:00;;;;;;;3.75;2.25;;;30.90;99.90;;;;;;5041434;28;20048;-71
2021/06/09 13:36:26;;;;;;;5.05;2.22;;;31.20;99.90;;;;;;5026611;28;20030;-75
2021/06/09 13:38:52;;;;;;;18.45;2.30;;;31.40;99.90;;;;;;5026786;28;20026;-72
2021/06/09 13:41:18;;;;;;;4.63;2.55;;;31.40;99.90;;;;;;5026263;28;20026;-74
2021/06/09 13:43:45;;;;;;;4.30;1.98;;;31.20;99.90;;;;;;5026143;28;20045;-75
2021/06/09 13:46:11;;;;;;;7.95;2.38;;;31.00;99.90;;;;;;5026434;28;20022;-73
2021/06/09 13:48:47;;;;;;;4.05;2.17;;;31.10;99.90;;;;;;5026222;28;20022;-74
2021/06/09 13:51:16;;;;;;;3.08;1.98;;;31.10;99.90;;;;;;5026408;28;20033;-75
2021/06/09 13:53:58;;;;;;;3.70;2.10;;;31.00;99.90;;;;;;5026048;28;20156;-73
2021/06/09 13:56:36;;;;;;;2.90;1.70;;;31.00;99.90;;;;;;5026026;28;20030;-74
2021/06/09 13:59:17;;;;;;;8.02;1.92;;;31.00;99.90;;;;;;5025481;28;20030;-74
2021/06/09 14:01:45;;;;;;;4.07;2.22;;;31.30;99.90;;;;;;5024334;28;20097;-71
2021/06/09 14:04:14;;;;;;;2.72;1.85;;;31.40;99.90;;;;;;5026141;28;20037;-76
2021/06/09 14:06:41;;;;;;;3.05;1.90;;;31.60;99.90;;;;;;5024714;28;20029;-74
2021/06/09 14:09:13;;;;;;;2.85;2.08;;;31.80;99.90;;;;;;5025629;28;20528;-74
2021/06/09 14:12:15;;;;;;;4.15;2.05;;;31.70;99.90;;;;;;5055516;28;20124;-74
2021/06/09 14:14:40;;;;;;;4.60;1.98;;;31.50;99.90;;;;;;5031467;28;20030;-75
2021/06/09 14:17:29;;;;;;;3.58;2.38;;;31.00;99.90;;;;;;5024707;28;20049;-74
2021/06/09 14:20:06;;;;;;;30.30;15.93;;;30.50;99.90;;;;;;5030512;28;20045;-76
2021/06/09 14:22:38;;;;;;;22.50;11.27;;;30.00;99.90;;;;;;5035083;28;20143;-74
2021/06/09 14:25:21;;;;;;;9.52;5.60;;;29.80;99.90;;;;;;5041069;28;20030;-74
2021/06/09 14:27:59;;;;;;;7.65;3.58;;;29.80;99.90;;;;;;5040453;28;20029;-75
2021/06/09 14:30:38;;;;;;;6.15;3.80;;;30.10;99.90;;;;;;5032323;28;20041;-75
2021/06/09 14:35:50;;;;;;;4.68;2.88;;;30.60;99.90;;;;;;5029789;28;20093;-74
2021/06/09 14:38:19;;;;;;;3.47;2.28;;;30.60;99.90;;;;;;5033921;28;20740;-74
2021/06/09 14:40:45;;;;;;;3.67;2.17;;;30.70;99.90;;;;;;5031018;28;20041;-72
2021/06/09 14:43:12;;;;;;;5.15;2.75;;;31.10;99.90;;;;;;5031519;28;20068;-75
2021/06/09 14:45:40;;;;;;;3.53;2.60;;;31.50;99.90;;;;;;5040602;28;20037;-75
2021/06/09 14:48:34;;;;;;;5.07;3.13;;;31.90;99.90;;;;;;5025158;28;20090;-75
2021/06/09 14:51:06;;;;;;;2.70;2.20;;;32.10;99.90;;;;;;5024732;28;20022;-75
2021/06/09 14:53:32;;;;;;;15.43;3.28;;;32.30;99.90;;;;;;5039501;28;20088;-74
2021/06/09 14:55:59;;;;;;;4.90;3.00;;;32.70;99.90;;;;;;5039384;28;20022;-71
2021/06/09 14:58:26;;;;;;;5.82;2.45;;;32.60;99.90;;;;;;5036366;28;20032;-76
2021/06/09 15:00:53;;;;;;;2.35;1.90;;;32.30;99.90;;;;;;5043780;28;20064;-76
2021/06/09 15:03:19;;;;;;;5.38;3.08;;;32.00;99.90;;;;;;5044136;28;20393;-75
2021/06/09 15:05:44;;;;;;;5.78;3.60;;;32.20;99.90;;;;;;5042683;28;20018;-76
2021/06/09 15:08:11;;;;;;;4.15;2.28;;;32.40;99.90;;;;;;5044650;28;20033;-74
2021/06/09 15:10:37;;;;;;;3.65;2.42;;;32.60;99.90;;;;;;5044488;28;20052;-75
2021/06/09 15:13:03;;;;;;;9.63;3.00;;;33.10;99.90;;;;;;5044359;28;20037;-72
2021/06/09 15:15:29;;;;;;;4.50;2.40;;;33.50;99.90;;;;;;5044608;28;20081;-72
2021/06/09 15:17:55;;;;;;;2.78;1.95;;;33.70;99.90;;;;;;5035731;28;20034;-76
2021/06/09 15:20:21;;;;;;;4.00;2.33;;;33.80;99.90;;;;;;5043204;28;20124;-74
2021/06/09 15:22:46;;;;;;;4.13;2.38;;;33.90;97.70;;;;;;5042167;28;20034;-72
2021/06/09 15:25:12;;;;;;;2.70;2.17;;;33.80;99.30;;;;;;5024089;28;20077;-76
2021/06/09 15:27:38;;;;;;;6.20;2.47;;;33.70;99.30;;;;;;5028638;28;20026;-75
2021/06/09 15:30:08;;;;;;;3.47;2.10;;;33.60;99.30;;;;;;5043729;28;20128;-75
2021/06/09 15:32:34;;;;;;;2.25;1.80;;;33.70;99.60;;;;;;5043751;28;20022;-75
2021/06/09 15:35:00;;;;;;;3.53;2.42;;;33.90;99.40;;;;;;5043020;28;20032;-76
2021/06/09 15:37:26;;;;;;;5.45;2.70;;;33.70;98.90;;;;;;5043243;28;20032;-76
2021/06/09 15:39:53;;;;;;;8.07;4.90;;;33.60;99.00;;;;;;5024538;28;20034;-77
2021/06/09 15:42:19;;;;;;;2.97;2.42;;;33.20;98.50;;;;;;5024436;28;20034;-76
2021/06/09 15:44:45;;;;;;;3.60;2.20;;;33.20;99.10;;;;;;5023776;28;20048;-74
2021/06/09 15:47:10;;;;;;;4.05;2.38;;;33.50;99.10;;;;;;5023628;28;20091;-75
2021/06/09 15:49:36;;;;;;;4.35;2.42;;;33.80;99.00;;;;;;5024199;28;20029;-74
2021/06/09 15:52:02;;;;;;;6.75;2.97;;;34.10;98.70;;;;;;5038576;28;20042;-75
2021/06/09 15:54:30;;;;;;;3.63;2.30;;;34.10;98.40;;;;;;5039500;28;20049;-74
2021/06/09 15:56:56;;;;;;;10.93;4.75;;;34.10;97.40;;;;;;5024246;28;20094;-74
2021/06/09 15:59:23;;;;;;;7.28;3.40;;;34.00;97.40;;;;;;5038735;28;20065;-75
2021/06/09 16:01:49;;;;;;;5.28;2.95;;;34.10;97.40;;;;;;5033704;28;20390;-72
2021/06/09 16:04:15;;;;;;;6.07;3.70;;;34.10;96.80;;;;;;5043596;28;20049;-74
2021/06/09 16:06:41;;;;;;;6.30;3.58;;;33.90;97.10;;;;;;5043261;28;20040;-75
2021/06/09 16:09:11;;;;;;;8.63;3.10;;;33.80;97.50;;;;;;5043883;28;20077;-76
2021/06/09 16:11:38;;;;;;;4.57;2.47;;;33.90;97.20;;;;;;5025700;28;20026;-75
2021/06/09 16:14:04;;;;;;;3.45;2.38;;;34.00;96.90;;;;;;5024140;28;20409;-75
2021/06/09 16:16:30;;;;;;;3.85;2.13;;;34.10;96.20;;;;;;5039252;28;20037;-75
2021/06/09 16:18:56;;;;;;;6.85;3.03;;;34.00;96.40;;;;;;5023495;28;20037;-75
2021/06/09 16:21:23;;;;;;;4.57;2.50;;;34.00;96.00;;;;;;5044110;28;20091;-76
2021/06/09 16:23:49;;;;;;;5.00;2.85;;;33.80;95.80;;;;;;5043949;28;20045;-77
2021/06/09 16:26:15;;;;;;;7.13;2.38;;;33.70;96.10;;;;;;5043333;28;20439;-72
2021/06/09 16:28:41;;;;;;;4.25;2.17;;;33.70;94.50;;;;;;5043664;28;20026;-73
2021/06/09 16:31:06;;;;;;;2.55;1.73;;;33.40;95.40;;;;;;5043759;28;20136;-75
2021/06/09 16:33:32;;;;;;;4.25;2.25;;;33.30;95.40;;;;;;5043245;28;20126;-75
2021/06/09 16:35:58;;;;;;;2.22;1.52;;;33.20;95.20;;;;;;5040707;28;20025;-77
2021/06/09 16:38:24;;;;;;;2.72;1.95;;;33.20;95.90;;;;;;5042428;28;20052;-77
2021/06/09 16:40:50;;;;;;;2.60;1.88;;;33.30;95.60;;;;;;5042094;28;20025;-76
2021/06/09 16:43:16;;;;;;;2.40;1.77;;;33.30;95.50;;;;;;5041749;28;20041;-77
2021/06/09 16:45:42;;;;;;;3.50;2.05;;;33.40;95.70;;;;;;5043091;28;20029;-75
2021/06/09 16:48:08;;;;;;;4.00;2.45;;;33.50;95.90;;;;;;5041676;28;20405;-78
2021/06/09 16:50:35;;;;;;;4.13;2.15;;;33.50;95.40;;;;;;5041999;28;20025;-77
2021/06/09 16:53:00;;;;;;;2.33;1.65;;;33.40;95.20;;;;;;5034406;28;20137;-75
2021/06/09 17:00:39;;;;;;;2.58;1.58;;;33.40;95.20;;;;;;5036014;28;20040;-76
2021/06/09 17:03:05;;;;;;;3.28;2.20;;;33.40;95.10;;;;;;5026508;28;20041;-76
2021/06/09 17:05:31;;;;;;;3.85;2.35;;;33.50;95.20;;;;;;5040473;28;20120;-76
2021/06/09 17:07:57;;;;;;;3.47;2.05;;;33.50;94.60;;;;;;5047113;28;20030;-76
2021/06/09 17:10:24;;;;;;;5.22;1.95;;;33.50;94.40;;;;;;5045400;28;20028;-76
2021/06/09 17:12:50;;;;;;;3.35;2.10;;;33.40;94.20;;;;;;5046862;28;20037;-75
2021/06/09 17:15:15;;;;;;;2.92;2.08;;;33.20;93.80;;;;;;5042157;28;20100;-76
2021/06/09 17:17:41;;;;;;;3.15;1.73;;;33.00;93.90;;;;;;5041683;28;20125;-75
2021/06/09 17:20:08;;;;;;;5.03;2.65;;;32.80;94.40;;;;;;5041682;28;20394;-77
2021/06/09 17:22:35;;;;;;;4.32;2.30;;;32.60;93.90;;;;;;5041452;28;20636;-74
2021/06/09 17:25:00;;;;;;;2.78;1.77;;;32.30;94.20;;;;;;5026487;28;20025;-76
2021/06/09 17:27:26;;;;;;;2.92;2.00;;;32.10;94.00;;;;;;5026917;28;20060;-76
2021/06/09 17:29:52;;;;;;;4.15;2.50;;;32.10;94.30;;;;;;5042297;28;20034;-75
2021/06/09 17:32:18;;;;;;;4.15;2.50;;;31.90;94.40;;;;;;5026467;28;20045;-77
2021/06/09 17:34:44;;;;;;;5.72;3.20;;;31.80;94.50;;;;;;5026804;28;20030;-77
2021/06/09 17:37:09;;;;;;;6.57;3.25;;;31.60;94.10;;;;;;5039373;28;20041;-78
2021/06/09 17:39:35;;;;;;;6.95;2.88;;;31.30;93.90;;;;;;5046277;28;20029;-75
2021/06/09 17:42:03;;;;;;;3.83;2.50;;;31.00;94.20;;;;;;5046122;28;20026;-79
2021/06/09 17:44:28;;;;;;;4.85;2.78;;;30.90;94.70;;;;;;5044612;28;20037;-77
2021/06/09 17:46:54;;;;;;;2.75;2.03;;;30.80;94.50;;;;;;5046583;28;20056;-77
2021/06/09 17:49:20;;;;;;;2.80;1.80;;;30.70;94.70;;;;;;5055796;28;20034;-77
2021/06/09 17:51:45;;;;;;;4.20;2.03;;;30.40;94.60;;;;;;5024936;28;20794;-77
2021/06/09 17:54:11;;;;;;;2.38;1.50;;;30.10;94.90;;;;;;5041436;28;20088;-77
2021/06/09 17:56:37;;;;;;;3.95;1.88;;;29.80;95.20;;;;;;5026283;28;20036;-77
2021/06/09 17:59:06;;;;;;;2.38;1.80;;;29.50;95.40;;;;;;5025679;28;20037;-77
2021/06/09 18:01:40;;;;;;;2.72;1.52;;;29.20;95.50;;;;;;5026879;28;19913;-77
2021/06/09 18:04:06;;;;;;;5.32;1.67;;;28.80;95.70;;;;;;5045754;28;20033;-76
2021/06/09 18:06:32;;;;;;;3.80;1.92;;;28.50;96.00;;;;;;5044967;28;20061;-77
2021/06/09 18:08:58;;;;;;;18.27;2.25;;;28.20;96.00;;;;;;5034036;28;20041;-78
2021/06/09 18:11:27;;;;;;;2.17;1.60;;;27.80;96.30;;;;;;5025688;28;20367;-78
2021/06/09 18:13:54;;;;;;;2.42;1.70;;;27.50;96.50;;;;;;5025510;28;20033;-78
2021/06/09 18:16:20;;;;;;;2.75;2.00;;;27.30;96.70;;;;;;5026249;28;20540;-76
2021/06/09 18:18:48;;;;;;;2.63;1.75;;;27.10;96.90;;;;;;5025582;28;20030;-75
2021/06/09 18:21:14;;;;;;;1.50;1.15;;;27.00;97.20;;;;;;5040878;28;20814;-76
2021/06/09 18:23:39;;;;;;;2.35;1.42;;;26.90;97.30;;;;;;5026738;28;20057;-78
2021/06/09 18:26:05;;;;;;;4.57;2.00;;;26.70;97.50;;;;;;5033799;28;20072;-75
2021/06/09 18:28:31;;;;;;;4.00;2.03;;;26.50;97.60;;;;;;5051155;28;20389;-76
2021/06/09 18:30:57;;;;;;;2.17;1.60;;;26.40;97.80;;;;;;5024954;28;20022;-78
2021/06/09 18:33:23;;;;;;;2.45;1.90;;;26.30;97.90;;;;;;5039830;28;20038;-79
2021/06/09 18:35:50;;;;;;;3.75;2.17;;;26.10;98.00;;;;;;5025358;28;20117;-76
2021/06/09 18:38:17;;;;;;;3.17;2.03;;;26.00;98.10;;;;;;5040592;28;20041;-78
2021/06/09 18:40:44;;;;;;;3.05;1.63;;;25.90;98.30;;;;;;5039944;28;20050;-76
2021/06/09 18:43:10;;;;;;;3.70;2.25;;;25.80;98.50;;;;;;5051988;28;20030;-75
2021/06/09 18:45:36;;;;;;;2.83;1.63;;;25.60;98.70;;;;;;5043395;28;20044;-78
2021/06/09 18:48:02;;;;;;;3.03;1.75;;;25.50;98.80;;;;;;5044466;28;20434;-76
2021/06/09 18:50:28;;;;;;;2.60;1.95;;;25.30;99.10;;;;;;5044586;28;20033;-75
2021/06/09 18:52:55;;;;;;;5.53;2.30;;;25.10;99.20;;;;;;5044313;28;20073;-76
2021/06/09 18:55:25;;;;;;;4.75;2.10;;;24.90;99.30;;;;;;5044691;28;20029;-76
2021/06/09 18:57:53;;;;;;;3.42;2.38;;;24.80;99.60;;;;;;5045453;28;20029;-76
2021/06/09 19:00:23;;;;;;;3.60;1.98;;;24.70;99.70;;;;;;5044653;28;20047;-78
2021/06/09 19:02:49;;;;;;;3.83;2.65;;;24.50;99.90;;;;;;5045086;28;20029;-77
2021/06/09 19:05:16;;;;;;;3.65;2.40;;;24.50;99.90;;;;;;5043059;28;20113;-78
2021/06/09 19:07:44;;;;;;;7.15;2.28;;;24.40;99.90;;;;;;5044341;28;20029;-76
2021/06/09 19:10:12;;;;;;;5.65;2.10;;;24.30;99.90;;;;;;5044160;28;20041;-75
2021/06/09 19:12:39;;;;;;;5.82;2.50;;;24.20;99.90;;;;;;5044585;28;20022;-76
2021/06/09 19:15:08;;;;;;;2.88;1.80;;;24.10;99.90;;;;;;5043597;28;20025;-75
2021/06/09 19:17:34;;;;;;;6.38;2.05;;;24.00;99.90;;;;;;5043932;28;20469;-75
2021/06/09 19:20:00;;;;;;;2.50;2.00;;;24.00;99.90;;;;;;5043366;28;20097;-76
2021/06/09 19:22:27;;;;;;;2.92;2.00;;;23.90;99.90;;;;;;5042480;28;20032;-76
2021/06/09 19:24:53;;;;;;;2.25;1.70;;;23.80;99.90;;;;;;5042557;28;20030;-77
2021/06/09 19:27:18;;;;;;;3.13;2.20;;;23.70;99.90;;;;;;5043007;28;20033;-76
2021/06/09 19:29:44;;;;;;;5.35;2.17;;;23.60;99.90;;;;;;5043741;28;20029;-75
2021/06/09 19:32:11;;;;;;;3.13;1.80;;;23.40;99.90;;;;;;5044284;28;20036;-75
2021/06/09 19:34:36;;;;;;;3.95;2.13;;;23.40;99.90;;;;;;5041760;28;20045;-75
2021/06/09 19:37:03;;;;;;;3.45;2.22;;;23.30;99.90;;;;;;5043559;28;20488;-76
2021/06/09 19:39:30;;;;;;;5.72;1.90;;;23.20;99.90;;;;;;5044078;28;20391;-75
2021/06/09 19:41:56;;;;;;;8.52;2.80;;;23.10;99.90;;;;;;5042225;28;20021;-76
2021/06/09 19:44:21;;;;;;;3.97;2.45;;;23.00;99.90;;;;;;5043899;28;20064;-74
2021/06/09 19:46:48;;;;;;;3.10;2.13;;;23.00;99.90;;;;;;5043310;28;20072;-75
2021/06/09 19:49:13;;;;;;;3.95;2.05;;;22.90;99.90;;;;;;5042979;28;20037;-73
2021/06/09 19:51:39;;;;;;;2.85;2.15;;;22.80;99.90;;;;;;5042634;28;20022;-74
2021/06/09 19:54:05;;;;;;;3.47;2.30;;;22.70;99.90;;;;;;5043359;28;20041;-75
2021/06/09 19:56:30;;;;;;;4.50;2.78;;;22.60;99.90;;;;;;5042889;28;20052;-75